Time;durP1;ratioP1;P1;durP2;ratioP2;P2;SDS_P1;SDS_P2;PMS_P1;PMS_P2;Temp;Humidity;BMP_temperature;BMP_pressure;BME280_temperature;BME280_humidity;BME280_pressure;Samples;Min_cycle;Max_cycle;Signal;HPM_P1;HPM_P2
2021/05/15 00:01:57;;;;;;;1.50;1.10;;;19.80;35.80;;;;;;8326656;28;20498;-47
2021/05/15 00:05:57;;;;;;;1.23;1.13;;;19.80;35.80;;;;;;8328226;28;20045;-48
2021/05/15 00:09:58;;;;;;;1.23;0.90;;;19.80;35.80;;;;;;8332549;28;20055;-48
2021/05/15 00:13:59;;;;;;;1.07;0.90;;;19.80;35.80;;;;;;8326428;28;20037;-48
2021/05/15 00:17:59;;;;;;;1.17;1.07;;;19.80;35.80;;;;;;8328149;28;20033;-49
2021/05/15 00:22:00;;;;;;;1.20;1.00;;;19.80;35.80;;;;;;8327866;28;20063;-47
2021/05/15 00:26:01;;;;;;;1.43;1.17;;;19.80;35.80;;;;;;8325480;28;20037;-48
2021/05/15 00:30:03;;;;;;;1.20;0.90;;;19.80;35.80;;;;;;8294998;28;20030;-48
2021/05/15 00:34:05;;;;;;;1.60;0.90;;;19.70;35.80;;;;;;8316287;28;20172;-49
2021/05/15 00:38:05;;;;;;;1.17;0.80;;;19.70;35.80;;;;;;8325711;28;20501;-50
2021/05/15 00:42:06;;;;;;;1.83;1.10;;;19.70;35.80;;;;;;8331274;28;20120;-49
2021/05/15 00:46:07;;;;;;;1.13;1.00;;;19.70;35.80;;;;;;8327111;28;20502;-48
2021/05/15 00:50:08;;;;;;;2.67;1.00;;;19.70;35.80;;;;;;8325806;28;20029;-47
2021/05/15 00:54:12;;;;;;;1.35;1.20;;;19.70;35.80;;;;;;8326846;28;20041;-48
2021/05/15 00:58:13;;;;;;;2.55;1.20;;;19.70;35.80;;;;;;8326538;28;20037;-48
2021/05/15 01:02:13;;;;;;;1.13;1.03;;;19.70;35.90;;;;;;8329243;28;20075;-47
2021/05/15 01:06:14;;;;;;;1.67;1.10;;;19.70;35.90;;;;;;8326423;28;20328;-47
2021/05/15 01:10:16;;;;;;;1.75;0.95;;;19.60;35.80;;;;;;8326340;28;20494;-46
2021/05/15 01:14:17;;;;;;;1.42;1.25;;;19.60;35.80;;;;;;8324526;28;20091;-47
2021/05/15 01:18:18;;;;;;;1.48;1.13;;;19.60;35.80;;;;;;8330458;28;20057;-48
2021/05/15 01:22:19;;;;;;;1.73;1.13;;;19.60;35.80;;;;;;8325944;28;20045;-47
2021/05/15 01:26:25;;;;;;;1.27;1.17;;;19.60;35.80;;;;;;8324114;28;20156;-48
2021/05/15 01:30:26;;;;;;;2.00;1.15;;;19.60;35.80;;;;;;8326269;28;20542;-47
2021/05/15 01:34:27;;;;;;;2.03;1.30;;;19.60;35.80;;;;;;8324036;28;20076;-46
2021/05/15 01:38:27;;;;;;;1.15;0.98;;;19.60;35.80;;;;;;8329889;28;20041;-47
2021/05/15 01:42:28;;;;;;;1.67;1.20;;;19.60;35.80;;;;;;8325311;28;20405;-48
2021/05/15 01:46:29;;;;;;;1.83;1.30;;;19.60;35.80;;;;;;8323548;28;20053;-47
2021/05/15 01:50:29;;;;;;;2.63;1.13;;;19.50;35.80;;;;;;8325267;28;20485;-48
2021/05/15 01:54:30;;;;;;;1.70;1.10;;;19.60;35.90;;;;;;8328443;28;20505;-48
2021/05/15 01:58:30;;;;;;;1.33;1.20;;;19.60;35.80;;;;;;8323653;28;20033;-46
2021/05/15 02:02:31;;;;;;;1.13;1.00;;;19.60;35.80;;;;;;8325546;28;20045;-47
2021/05/15 02:06:31;;;;;;;1.53;1.00;;;19.60;35.80;;;;;;8324613;28;20493;-46
2021/05/15 02:10:32;;;;;;;1.27;1.00;;;19.50;35.80;;;;;;8327738;28;20076;-46
2021/05/15 02:14:32;;;;;;;1.90;1.40;;;19.50;35.70;;;;;;8316041;28;20402;-47
2021/05/15 02:18:33;;;;;;;2.27;1.00;;;19.50;35.80;;;;;;8309656;28;20133;-47
2021/05/15 02:22:34;;;;;;;2.50;1.30;;;19.50;35.80;;;;;;8323103;28;20049;-46
2021/05/15 02:26:34;;;;;;;1.17;1.00;;;19.50;35.80;;;;;;8324533;28;20057;-46
2021/05/15 02:30:35;;;;;;;1.37;1.20;;;19.50;35.80;;;;;;8329032;28;20045;-47
2021/05/15 02:34:37;;;;;;;2.33;1.42;;;19.40;35.80;;;;;;8322518;28;20121;-47
2021/05/15 02:38:37;;;;;;;1.38;1.25;;;19.40;35.70;;;;;;8314879;28;20042;-46
2021/05/15 02:42:38;;;;;;;2.47;1.20;;;19.40;35.70;;;;;;8309766;28;20068;-49
2021/05/15 02:46:39;;;;;;;2.30;1.30;;;19.40;35.70;;;;;;8326998;28;20284;-47
2021/05/15 02:50:39;;;;;;;2.07;1.20;;;19.40;35.80;;;;;;8324347;28;20048;-46
2021/05/15 02:54:40;;;;;;;1.70;1.00;;;19.40;35.80;;;;;;8324168;28;20064;-46
2021/05/15 02:58:41;;;;;;;1.10;1.00;;;19.40;35.70;;;;;;8322364;28;20136;-47
2021/05/15 03:02:41;;;;;;;1.10;1.00;;;19.40;35.80;;;;;;8325277;28;20029;-46
2021/05/15 03:06:42;;;;;;;1.53;1.20;;;19.40;35.80;;;;;;8329550;28;20514;-47
2021/05/15 03:10:42;;;;;;;1.90;1.30;;;19.40;35.80;;;;;;8328594;28;20398;-47
2021/05/15 03:14:43;;;;;;;1.80;1.20;;;19.40;35.80;;;;;;8330214;28;20112;-47
2021/05/15 03:18:44;;;;;;;1.10;0.80;;;19.40;35.80;;;;;;8310898;28;20037;-46
2021/05/15 03:22:45;;;;;;;1.30;1.00;;;19.30;35.80;;;;;;8326892;28;20049;-46
2021/05/15 03:26:46;;;;;;;1.50;1.17;;;19.40;35.80;;;;;;8329344;28;20053;-48
2021/05/15 03:30:46;;;;;;;1.40;1.30;;;19.30;35.80;;;;;;8310167;28;20124;-46
2021/05/15 03:34:47;;;;;;;1.53;1.20;;;19.30;35.80;;;;;;8295145;28;20033;-46
2021/05/15 03:38:48;;;;;;;1.30;1.10;;;19.30;35.80;;;;;;8312299;28;20072;-46
2021/05/15 03:42:48;;;;;;;1.27;1.10;;;19.40;35.80;;;;;;8309682;28;20034;-48
2021/05/15 03:46:49;;;;;;;1.37;1.00;;;19.30;35.80;;;;;;8294362;28;20398;-47
2021/05/15 03:50:51;;;;;;;1.80;1.23;;;19.30;35.80;;;;;;8307415;28;20081;-47
2021/05/15 03:54:51;;;;;;;1.38;0.90;;;19.30;35.80;;;;;;8328501;28;20033;-47
2021/05/15 03:58:53;;;;;;;1.50;1.17;;;19.30;35.80;;;;;;8303270;28;20078;-46
2021/05/15 04:02:54;;;;;;;1.10;1.00;;;19.30;35.80;;;;;;8307940;28;20037;-46
2021/05/15 04:06:54;;;;;;;1.37;0.80;;;19.30;35.80;;;;;;8328098;28;20038;-46
2021/05/15 04:10:55;;;;;;;1.63;1.20;;;19.30;35.80;;;;;;8326545;28;20059;-46
2021/05/15 04:15:07;;;;;;;0.80;0.80;;;19.30;35.80;;;;;;8332740;28;20529;-46
2021/05/15 04:19:08;;;;;;;1.05;0.90;;;19.30;35.80;;;;;;8327377;28;20046;-46
2021/05/15 04:23:09;;;;;;;2.73;1.00;;;19.30;35.80;;;;;;8326234;28;20124;-46
2021/05/15 04:27:12;;;;;;;1.63;1.08;;;19.30;35.80;;;;;;8327871;28;20114;-47
2021/05/15 04:31:12;;;;;;;0.80;0.70;;;19.30;35.80;;;;;;8327447;28;20034;-47
2021/05/15 04:35:13;;;;;;;1.30;1.10;;;19.30;35.90;;;;;;8345614;28;20076;-48
2021/05/15 04:39:14;;;;;;;1.17;1.03;;;19.30;35.80;;;;;;8327319;28;20410;-46
2021/05/15 04:43:14;;;;;;;1.03;0.90;;;19.30;35.80;;;;;;8327234;28;20394;-48
2021/05/15 04:47:15;;;;;;;1.38;1.00;;;19.30;35.80;;;;;;8325254;28;20060;-47
2021/05/15 04:51:16;;;;;;;1.30;1.10;;;19.30;35.90;;;;;;8331291;28;20060;-48
2021/05/15 04:55:17;;;;;;;1.17;0.90;;;19.30;35.80;;;;;;8326697;28;20127;-47
2021/05/15 04:59:17;;;;;;;0.90;0.90;;;19.30;35.80;;;;;;8325361;28;20277;-46
2021/05/15 05:03:18;;;;;;;2.03;1.10;;;19.30;35.80;;;;;;8326644;28;20269;-46
2021/05/15 05:07:18;;;;;;;1.27;1.00;;;19.30;35.90;;;;;;8330558;28;20067;-46
2021/05/15 05:11:19;;;;;;;1.00;0.90;;;19.30;35.80;;;;;;8324667;28;20113;-47
2021/05/15 05:15:19;;;;;;;1.60;1.23;;;19.30;35.80;;;;;;8326104;28;20034;-47
2021/05/15 05:19:20;;;;;;;1.83;1.10;;;19.30;35.80;;;;;;8325853;28;20124;-48
2021/05/15 05:23:20;;;;;;;0.80;0.80;;;19.30;35.80;;;;;;8324455;28;20052;-46
2021/05/15 05:27:22;;;;;;;1.43;1.10;;;19.30;35.80;;;;;;8330081;28;20295;-46
2021/05/15 05:31:23;;;;;;;1.02;0.73;;;19.30;35.80;;;;;;8325456;28;20037;-46
2021/05/15 05:35:23;;;;;;;0.93;0.77;;;19.30;35.80;;;;;;8323733;28;20441;-46
2021/05/15 05:39:24;;;;;;;2.23;1.03;;;19.30;35.80;;;;;;8325741;28;20105;-47
2021/05/15 05:43:24;;;;;;;0.97;0.80;;;19.30;35.80;;;;;;8329888;28;20026;-47
2021/05/15 05:47:25;;;;;;;0.97;0.83;;;19.30;35.80;;;;;;8323617;28;20041;-48
2021/05/15 05:51:26;;;;;;;0.80;0.80;;;19.40;35.80;;;;;;8325264;28;20088;-47
2021/05/15 05:55:26;;;;;;;1.52;1.08;;;19.30;35.80;;;;;;8323306;28;20033;-46
2021/05/15 05:59:27;;;;;;;1.33;0.93;;;19.30;35.80;;;;;;8327169;28;20128;-47
2021/05/15 06:03:27;;;;;;;1.03;0.90;;;19.30;35.80;;;;;;8327520;28;20037;-47
2021/05/15 06:07:28;;;;;;;0.93;0.90;;;19.30;35.80;;;;;;8323215;28;20045;-48
2021/05/15 06:11:28;;;;;;;2.57;0.90;;;19.30;35.80;;;;;;8324718;28;20466;-47
2021/05/15 06:15:29;;;;;;;1.70;0.87;;;19.30;35.80;;;;;;8324498;28;20049;-47
2021/05/15 06:19:29;;;;;;;1.50;1.00;;;19.30;35.80;;;;;;8327448;28;20030;-49
2021/05/15 06:23:30;;;;;;;0.90;0.90;;;19.30;35.80;;;;;;8325484;28;20025;-47
2021/05/15 06:27:30;;;;;;;0.80;0.80;;;19.30;35.80;;;;;;8324593;28;20045;-49
2021/05/15 06:31:31;;;;;;;1.30;1.10;;;19.30;35.80;;;;;;8322789;28;20038;-46
2021/05/15 06:35:33;;;;;;;2.10;1.00;;;19.30;35.80;;;;;;8328901;28;20026;-48
2021/05/15 06:39:33;;;;;;;1.50;0.80;;;19.40;35.80;;;;;;8339615;28;20069;-48
2021/05/15 06:43:34;;;;;;;1.13;0.87;;;19.40;35.80;;;;;;8328245;28;20041;-48
2021/05/15 06:47:35;;;;;;;0.90;0.80;;;19.40;35.80;;;;;;8331024;28;20034;-46
2021/05/15 06:51:36;;;;;;;1.08;0.95;;;19.40;35.80;;;;;;8330648;28;20038;-46
2021/05/15 06:55:36;;;;;;;1.73;0.97;;;19.40;35.70;;;;;;8333214;28;20120;-48
2021/05/15 06:59:37;;;;;;;0.70;0.70;;;19.40;35.80;;;;;;8330710;28;20034;-47
2021/05/15 07:03:37;;;;;;;1.00;0.80;;;19.40;35.70;;;;;;8312666;28;20034;-46
2021/05/15 07:07:38;;;;;;;1.10;0.90;;;19.40;35.70;;;;;;8321810;28;20556;-47
2021/05/15 07:11:38;;;;;;;1.23;0.90;;;19.40;35.70;;;;;;8324667;28;20026;-47
2021/05/15 07:15:39;;;;;;;0.80;0.80;;;19.40;35.70;;;;;;8297255;28;20077;-50
2021/05/15 07:19:39;;;;;;;2.43;1.87;;;19.40;35.70;;;;;;8295326;28;20049;-47
2021/05/15 07:23:40;;;;;;;1.38;0.88;;;19.40;35.70;;;;;;8296308;28;20045;-47
2021/05/15 07:27:40;;;;;;;1.00;0.90;;;19.50;35.70;;;;;;8301238;28;20131;-47
2021/05/15 07:31:41;;;;;;;1.00;0.90;;;19.40;35.70;;;;;;8295206;28;20487;-47
2021/05/15 07:35:41;;;;;;;2.73;1.20;;;19.50;35.70;;;;;;8306968;28;20120;-47
2021/05/15 07:39:43;;;;;;;0.90;0.80;;;19.50;35.70;;;;;;8310723;28;20042;-47
2021/05/15 07:43:43;;;;;;;1.00;0.70;;;19.50;35.70;;;;;;8319102;28;20153;-47
2021/05/15 07:47:44;;;;;;;0.93;0.67;;;19.50;35.70;;;;;;8311330;28;20060;-47
2021/05/15 07:51:45;;;;;;;1.70;0.77;;;19.50;35.70;;;;;;8309914;28;20034;-49
2021/05/15 07:55:46;;;;;;;0.90;0.75;;;19.60;35.70;;;;;;8321741;28;20045;-48
2021/05/15 07:59:46;;;;;;;1.03;0.83;;;19.50;35.70;;;;;;8328178;28;20040;-47
2021/05/15 08:03:47;;;;;;;0.67;0.67;;;19.60;35.70;;;;;;8332756;28;20052;-48
2021/05/15 08:07:48;;;;;;;1.13;0.90;;;19.60;35.70;;;;;;8299019;28;20116;-46
2021/05/15 08:11:49;;;;;;;1.17;0.90;;;19.60;35.70;;;;;;8295503;28;20119;-48
2021/05/15 08:15:51;;;;;;;0.98;0.80;;;19.60;35.70;;;;;;8314614;28;20525;-47
2021/05/15 08:19:51;;;;;;;1.10;0.93;;;19.60;35.70;;;;;;8329109;28;20037;-48
2021/05/15 08:23:52;;;;;;;1.57;0.90;;;19.60;35.70;;;;;;8329432;28;20394;-47
2021/05/15 08:27:57;;;;;;;1.10;0.80;;;19.50;35.60;;;;;;8327772;28;20073;-47
2021/05/15 08:31:59;;;;;;;1.35;0.70;;;19.60;35.70;;;;;;8326043;28;20033;-48
2021/05/15 08:36:00;;;;;;;1.05;0.75;;;19.60;35.70;;;;;;8301332;28;20479;-47
2021/05/15 08:40:00;;;;;;;1.63;0.60;;;19.60;35.70;;;;;;8319990;28;20029;-47
2021/05/15 08:44:02;;;;;;;1.53;1.20;;;19.60;35.70;;;;;;8300893;28;20075;-49
2021/05/15 08:48:05;;;;;;;1.23;0.82;;;19.60;35.70;;;;;;8326993;28;20030;-48
2021/05/15 08:52:06;;;;;;;1.15;0.60;;;19.70;35.70;;;;;;8304995;28;20029;-51
2021/05/15 08:56:10;;;;;;;0.90;0.80;;;19.70;35.70;;;;;;8302510;28;20171;-52
2021/05/15 09:00:21;;;;;;;2.25;0.77;;;19.70;35.70;;;;;;8326568;28;20276;-47
2021/05/15 09:04:25;;;;;;;0.80;0.60;;;19.70;35.70;;;;;;8325841;28;20045;-48
2021/05/15 09:08:25;;;;;;;1.38;0.88;;;19.70;35.60;;;;;;8325300;28;20025;-48
2021/05/15 09:12:26;;;;;;;1.37;0.70;;;19.70;35.60;;;;;;8326455;28;20087;-47
2021/05/15 09:16:27;;;;;;;0.63;0.50;;;19.70;35.60;;;;;;8328927;28;20048;-47
2021/05/15 09:20:33;;;;;;;0.80;0.80;;;19.80;35.60;;;;;;8326103;28;20103;-51
2021/05/15 09:24:40;;;;;;;1.52;0.82;;;19.80;35.60;;;;;;8326124;28;20044;-51
2021/05/15 09:28:55;;;;;;;0.95;0.90;;;19.80;35.50;;;;;;8324156;28;20033;-47
2021/05/15 09:32:55;;;;;;;0.73;0.73;;;19.80;35.50;;;;;;8325714;28;20036;-48
2021/05/15 09:36:56;;;;;;;0.60;0.60;;;19.90;35.50;;;;;;8330091;28;20037;-47
2021/05/15 09:40:58;;;;;;;1.83;0.65;;;19.90;35.50;;;;;;8323827;28;20474;-50
2021/05/15 09:44:58;;;;;;;1.38;0.88;;;19.90;35.50;;;;;;8325737;28;20041;-47
2021/05/15 09:48:59;;;;;;;1.57;0.77;;;19.90;35.50;;;;;;8325598;28;20060;-50
2021/05/15 09:53:11;;;;;;;1.45;1.00;;;19.90;35.50;;;;;;8328031;28;20056;-48
2021/05/15 09:57:16;;;;;;;1.10;0.73;;;19.90;35.50;;;;;;8325298;28;20180;-48
2021/05/15 10:01:16;;;;;;;0.88;0.63;;;19.90;35.50;;;;;;8324952;28;20431;-51
2021/05/15 10:05:19;;;;;;;0.97;0.80;;;19.90;35.50;;;;;;8323011;28;20080;-47
2021/05/15 10:09:44;;;;;;;1.30;0.80;;;19.90;35.50;;;;;;8324613;28;20033;-52
2021/05/15 10:13:45;;;;;;;0.70;0.70;;;19.90;35.50;;;;;;8327507;28;20517;-50
2021/05/15 10:17:46;;;;;;;1.03;0.70;;;19.90;35.50;;;;;;8329351;28;20065;-47
2021/05/15 10:21:47;;;;;;;0.60;0.60;;;20.00;35.50;;;;;;8331547;28;20439;-50
2021/05/15 10:25:49;;;;;;;0.90;0.80;;;20.00;35.40;;;;;;8329761;28;20132;-48
2021/05/15 10:29:51;;;;;;;;;;;20.10;35.50;;;;;;8336091;28;20068;-53
2021/05/15 10:34:00;;;;;;;1.73;1.25;;;20.10;35.40;;;;;;8331761;28;19913;-49
2021/05/15 10:38:10;;;;;;;1.90;0.70;;;20.10;35.40;;;;;;8329541;28;20053;-48
2021/05/15 10:42:12;;;;;;;0.70;0.70;;;20.10;35.40;;;;;;8331123;28;20532;-49
2021/05/15 10:46:13;;;;;;;1.08;0.60;;;20.10;35.40;;;;;;8330360;28;20045;-51
2021/05/15 10:50:21;;;;;;;1.02;0.80;;;20.20;35.40;;;;;;8333515;28;20037;-47
2021/05/15 10:54:34;;;;;;;1.20;0.77;;;20.20;35.40;;;;;;8330258;28;20079;-48
2021/05/15 10:58:46;;;;;;;1.35;0.70;;;20.20;35.40;;;;;;8328895;28;20136;-51
2021/05/15 11:02:46;;;;;;;0.70;0.70;;;20.10;35.40;;;;;;8330255;28;20037;-51
2021/05/15 11:07:03;;;;;;;0.60;0.57;;;20.20;35.40;;;;;;8330002;28;20211;-47
2021/05/15 11:11:11;;;;;;;2.42;0.90;;;20.20;35.40;;;;;;8332948;28;20037;-51
2021/05/15 11:15:14;;;;;;;1.02;0.80;;;20.20;35.40;;;;;;8330586;28;20041;-47
2021/05/15 11:19:15;;;;;;;0.95;0.77;;;20.20;35.40;;;;;;8329523;28;20043;-46
2021/05/15 11:23:21;;;;;;;1.23;1.10;;;20.20;35.40;;;;;;8328210;28;20045;-51
2021/05/15 11:27:23;;;;;;;2.38;0.80;;;20.20;35.40;;;;;;8329233;28;20042;-50
2021/05/15 11:31:23;;;;;;;1.35;1.25;;;20.20;35.40;;;;;;8333973;28;20040;-47
2021/05/15 11:35:25;;;;;;;1.53;0.97;;;20.10;35.40;;;;;;8327709;28;20505;-47
2021/05/15 11:39:26;;;;;;;1.13;0.90;;;20.20;35.40;;;;;;8312781;28;20498;-50
2021/05/15 11:43:34;;;;;;;0.87;0.83;;;20.20;35.40;;;;;;8294932;28;20083;-46
2021/05/15 11:47:34;;;;;;;1.25;0.82;;;20.20;35.40;;;;;;8309778;28;20046;-47
2021/05/15 11:51:35;;;;;;;1.30;1.10;;;20.20;35.40;;;;;;8328621;28;20433;-50
2021/05/15 11:55:36;;;;;;;1.60;0.97;;;20.20;35.30;;;;;;8327370;28;20045;-47
2021/05/15 11:59:36;;;;;;;1.17;0.87;;;20.20;35.30;;;;;;8329099;28;20041;-47
2021/05/15 12:03:37;;;;;;;1.23;1.00;;;20.20;35.30;;;;;;8311090;28;20033;-49
2021/05/15 12:07:44;;;;;;;1.93;0.80;;;20.10;35.30;;;;;;8299821;28;20046;-47
2021/05/15 12:11:45;;;;;;;1.90;1.00;;;20.20;35.30;;;;;;8328425;28;20076;-47
2021/05/15 12:15:52;;;;;;;2.63;1.20;;;20.10;35.20;;;;;;8327562;28;20042;-48
2021/05/15 12:19:57;;;;;;;1.42;0.90;;;20.20;35.30;;;;;;8326260;28;20128;-47
2021/05/15 12:24:04;;;;;;;1.30;0.90;;;20.20;35.20;;;;;;8332234;28;20544;-50
2021/05/15 12:28:20;;;;;;;1.08;0.70;;;20.20;35.20;;;;;;8327871;28;20053;-47
2021/05/15 12:32:25;;;;;;;0.80;0.70;;;20.20;35.30;;;;;;8326008;28;20049;-50
2021/05/15 12:36:34;;;;;;;1.10;0.80;;;20.20;35.20;;;;;;8328067;28;20045;-48
2021/05/15 12:40:34;;;;;;;1.02;0.80;;;20.20;35.30;;;;;;8324725;28;20490;-48
2021/05/15 12:44:40;;;;;;;1.38;0.82;;;20.10;35.30;;;;;;8330359;28;20157;-49
2021/05/15 12:48:43;;;;;;;1.92;0.90;;;20.20;35.20;;;;;;8327129;28;20095;-47
2021/05/15 12:52:43;;;;;;;1.50;0.90;;;20.20;35.30;;;;;;8325521;28;20041;-47
2021/05/15 12:56:51;;;;;;;1.10;0.80;;;20.20;35.30;;;;;;8326577;28;20449;-46
2021/05/15 13:01:04;;;;;;;0.85;0.80;;;20.10;35.30;;;;;;8326704;28;20037;-46
2021/05/15 13:05:05;;;;;;;1.00;0.68;;;20.10;35.30;;;;;;8329233;28;20053;-48
2021/05/15 13:09:06;;;;;;;1.65;0.80;;;20.10;35.40;;;;;;8326666;28;20041;-47
2021/05/15 13:13:06;;;;;;;2.00;1.20;;;20.10;35.30;;;;;;8326487;28;20045;-47
2021/05/15 13:17:07;;;;;;;1.23;0.70;;;20.10;35.40;;;;;;8324420;28;20402;-49
2021/05/15 13:21:09;;;;;;;1.87;0.83;;;20.10;35.30;;;;;;8330289;28;20072;-47
2021/05/15 13:25:09;;;;;;;;;;;20.10;35.40;;;;;;8325888;28;20045;-47
2021/05/15 13:29:10;;;;;;;1.00;0.90;;;20.10;35.40;;;;;;8324065;28;19913;-48
2021/05/15 13:33:11;;;;;;;1.15;0.93;;;20.10;35.40;;;;;;8311592;28;20083;-48
2021/05/15 13:37:12;;;;;;;1.55;0.93;;;20.00;35.40;;;;;;8293928;28;20037;-47
2021/05/15 13:41:13;;;;;;;1.87;0.93;;;20.00;35.40;;;;;;8301036;28;20052;-50
2021/05/15 13:45:13;;;;;;;1.33;1.23;;;20.00;35.40;;;;;;8325322;28;20053;-51
2021/05/15 13:49:14;;;;;;;1.53;0.90;;;20.00;35.40;;;;;;8325070;28;20036;-49
2021/05/15 13:53:15;;;;;;;1.37;0.80;;;20.00;35.50;;;;;;8323697;28;20057;-53
2021/05/15 13:57:15;;;;;;;1.77;0.77;;;20.00;35.50;;;;;;8329514;28;20044;-53
2021/05/15 14:01:16;;;;;;;0.80;0.80;;;20.00;35.50;;;;;;8325195;28;20625;-52
2021/05/15 14:05:17;;;;;;;1.10;1.00;;;20.00;35.60;;;;;;8323470;28;20128;-49
2021/05/15 14:09:18;;;;;;;1.30;1.10;;;20.00;35.60;;;;;;8309796;28;20391;-49
2021/05/15 14:13:20;;;;;;;1.63;1.10;;;20.00;35.60;;;;;;8296520;28;20040;-48
2021/05/15 14:17:20;;;;;;;1.15;0.80;;;20.00;35.60;;;;;;8314912;28;20038;-49
2021/05/15 14:21:21;;;;;;;1.00;0.73;;;20.00;35.60;;;;;;8291977;28;20065;-50
2021/05/15 14:25:21;;;;;;;1.80;0.80;;;20.00;35.60;;;;;;8291861;28;20533;-48
2021/05/15 14:29:22;;;;;;;1.73;1.10;;;20.00;35.70;;;;;;8290143;28;20061;-49
2021/05/15 14:33:23;;;;;;;1.53;1.10;;;20.00;35.70;;;;;;8312380;28;20072;-50
2021/05/15 14:37:23;;;;;;;1.40;1.00;;;20.00;35.80;;;;;;8324947;28;20183;-50
2021/05/15 14:41:24;;;;;;;1.10;1.00;;;20.00;35.80;;;;;;8323085;28;20021;-50
2021/05/15 14:45:24;;;;;;;0.97;0.87;;;19.90;35.80;;;;;;8324032;28;20575;-49
2021/05/15 14:49:25;;;;;;;1.47;0.90;;;20.00;35.90;;;;;;8328700;28;20045;-49
2021/05/15 14:53:29;;;;;;;1.03;1.00;;;19.90;35.90;;;;;;8322758;28;20039;-49
2021/05/15 14:57:29;;;;;;;1.00;0.88;;;20.00;35.90;;;;;;8324190;28;20042;-49
2021/05/15 15:01:30;;;;;;;2.97;1.00;;;20.00;36.50;;;;;;8298008;28;20450;-47
2021/05/15 15:05:30;;;;;;;1.73;1.03;;;20.00;35.90;;;;;;8301977;28;20042;-49
2021/05/15 15:09:31;;;;;;;1.37;1.00;;;19.90;35.90;;;;;;8297573;28;20545;-50
2021/05/15 15:13:32;;;;;;;1.83;1.33;;;19.90;35.90;;;;;;8295746;28;20065;-50
2021/05/15 15:17:32;;;;;;;1.20;1.05;;;20.00;36.30;;;;;;8306052;28;20069;-49
2021/05/15 15:21:33;;;;;;;1.20;1.00;;;20.00;36.00;;;;;;8329846;28;20033;-50
2021/05/15 15:25:34;;;;;;;1.50;1.10;;;19.90;36.00;;;;;;8332976;28;20156;-49
2021/05/15 15:29:35;;;;;;;1.10;1.00;;;20.00;36.10;;;;;;8329592;28;20045;-49
2021/05/15 15:33:35;;;;;;;1.90;1.20;;;20.00;36.10;;;;;;8329358;28;20406;-48
2021/05/15 15:37:36;;;;;;;1.53;1.17;;;20.00;36.20;;;;;;8327759;28;20110;-49
2021/05/15 15:41:37;;;;;;;1.10;1.00;;;20.00;36.10;;;;;;8322746;28;20494;-48
2021/05/15 15:45:38;;;;;;;1.10;1.00;;;19.90;36.10;;;;;;8328723;28;20041;-49
2021/05/15 15:49:39;;;;;;;1.92;1.30;;;19.90;36.10;;;;;;8326475;28;20600;-49
2021/05/15 15:53:39;;;;;;;1.10;1.00;;;19.90;36.10;;;;;;8326286;28;20115;-48
2021/05/15 15:57:40;;;;;;;1.30;0.90;;;19.90;36.10;;;;;;8328645;28;20041;-48
2021/05/15 16:01:42;;;;;;;1.70;0.90;;;19.90;36.20;;;;;;8330847;28;20507;-51
2021/05/15 16:05:44;;;;;;;1.58;0.95;;;19.90;36.20;;;;;;8328387;28;20319;-52
2021/05/15 16:09:44;;;;;;;1.02;0.98;;;19.90;36.20;;;;;;8328148;28;20140;-50
2021/05/15 16:13:45;;;;;;;1.50;1.17;;;19.90;36.20;;;;;;8324982;28;20025;-50
2021/05/15 16:17:45;;;;;;;1.23;1.13;;;19.90;36.20;;;;;;8332620;28;20140;-49
2021/05/15 16:21:47;;;;;;;1.47;1.17;;;19.90;36.30;;;;;;8327961;28;20410;-49
2021/05/15 16:25:48;;;;;;;1.23;1.10;;;19.90;36.30;;;;;;8326177;28;20156;-51
2021/05/15 16:29:48;;;;;;;1.30;1.20;;;19.90;36.30;;;;;;8327748;28;20037;-49
2021/05/15 16:33:49;;;;;;;3.03;1.10;;;19.90;36.30;;;;;;8332039;28;20071;-52
2021/05/15 16:37:49;;;;;;;4.17;1.10;;;19.90;36.40;;;;;;8325874;28;20029;-49
2021/05/15 16:41:50;;;;;;;1.53;1.27;;;19.90;36.40;;;;;;8327490;28;20449;-50
2021/05/15 16:45:53;;;;;;;1.20;1.00;;;19.90;36.40;;;;;;8327051;28;20394;-50
2021/05/15 16:49:54;;;;;;;2.08;1.50;;;19.90;36.40;;;;;;8300829;28;20046;-51
2021/05/15 16:53:55;;;;;;;4.50;2.83;;;19.90;36.40;;;;;;8319759;28;20030;-51
2021/05/15 16:57:56;;;;;;;4.25;2.55;;;19.90;36.50;;;;;;8294237;28;20045;-48
2021/05/15 17:01:58;;;;;;;4.35;2.38;;;19.80;36.50;;;;;;8321008;28;20367;-49
2021/05/15 17:05:58;;;;;;;3.75;2.60;;;19.90;36.50;;;;;;8326739;28;20497;-51
2021/05/15 17:09:59;;;;;;;3.93;2.40;;;19.90;36.50;;;;;;8310051;28;20080;-51
2021/05/15 17:13:59;;;;;;;5.27;2.60;;;19.90;36.60;;;;;;8296746;28;20430;-49
2021/05/15 17:18:00;;;;;;;4.17;2.90;;;19.80;36.50;;;;;;8326369;28;20035;-50
2021/05/15 17:22:00;;;;;;;3.97;2.43;;;19.80;36.50;;;;;;8304932;28;20093;-50
2021/05/15 17:26:04;;;;;;;5.50;2.97;;;19.80;36.50;;;;;;8316888;28;20066;-49
2021/05/15 17:30:06;;;;;;;3.83;2.58;;;19.90;36.60;;;;;;8300591;28;20422;-49
2021/05/15 17:34:06;;;;;;;5.03;2.72;;;19.80;36.60;;;;;;8325830;28;20121;-49
2021/05/15 17:38:07;;;;;;;4.43;3.00;;;19.90;36.80;;;;;;8324266;28;20458;-49
2021/05/15 17:42:08;;;;;;;3.78;2.40;;;19.90;36.60;;;;;;8325704;28;20025;-49
2021/05/15 17:46:10;;;;;;;4.10;2.50;;;19.80;36.60;;;;;;8329625;28;20132;-50
2021/05/15 17:50:11;;;;;;;4.82;2.33;;;19.80;36.60;;;;;;8323097;28;20057;-49
2021/05/15 17:54:12;;;;;;;4.50;2.47;;;19.80;36.60;;;;;;8323798;28;20042;-49
2021/05/15 17:58:13;;;;;;;3.43;2.30;;;19.80;36.60;;;;;;8325324;28;20482;-49
2021/05/15 18:02:14;;;;;;;3.42;2.45;;;19.80;36.60;;;;;;8321513;28;20034;-48
2021/05/15 18:06:14;;;;;;;4.03;2.33;;;19.80;36.70;;;;;;8292405;28;20054;-48
2021/05/15 18:10:15;;;;;;;3.87;2.50;;;19.80;36.80;;;;;;8292541;28;20030;-49
2021/05/15 18:14:16;;;;;;;4.22;2.30;;;19.80;36.80;;;;;;8315290;28;20399;-50
2021/05/15 18:18:17;;;;;;;5.80;2.50;;;19.80;36.90;;;;;;8307626;28;20498;-50
2021/05/15 18:22:17;;;;;;;4.50;2.80;;;19.80;36.90;;;;;;8329058;28;20137;-49
2021/05/15 18:26:18;;;;;;;4.07;2.30;;;19.80;36.90;;;;;;8323070;28;20037;-49
2021/05/15 18:30:19;;;;;;;3.40;2.60;;;19.80;36.90;;;;;;8324885;28;20026;-48
2021/05/15 18:34:20;;;;;;;3.65;2.40;;;19.70;36.90;;;;;;8324944;28;20569;-53
2021/05/15 18:38:22;;;;;;;4.03;2.50;;;19.80;37.00;;;;;;8331128;28;20060;-50
2021/05/15 18:42:23;;;;;;;4.03;2.63;;;19.80;37.00;;;;;;8331383;28;20037;-49
2021/05/15 18:46:23;;;;;;;4.53;2.40;;;19.80;37.00;;;;;;8330835;28;20072;-49
2021/05/15 18:50:24;;;;;;;4.57;2.40;;;19.80;37.00;;;;;;8329234;28;20040;-49
2021/05/15 18:54:24;;;;;;;3.53;2.03;;;19.80;37.00;;;;;;8333056;28;20041;-48
2021/05/15 18:58:25;;;;;;;4.23;2.33;;;19.80;37.00;;;;;;8334012;28;20040;-52
2021/05/15 19:02:25;;;;;;;3.17;2.27;;;19.80;37.10;;;;;;8328859;28;20183;-49
2021/05/15 19:06:27;;;;;;;2.90;1.90;;;19.80;37.10;;;;;;8330542;28;20057;-50
2021/05/15 19:10:27;;;;;;;3.60;2.13;;;19.80;37.10;;;;;;8328721;28;20052;-47
2021/05/15 19:14:28;;;;;;;2.83;1.80;;;19.70;37.60;;;;;;8334712;28;20041;-49
2021/05/15 19:18:29;;;;;;;3.27;2.03;;;19.70;37.10;;;;;;8329967;28;20555;-49
2021/05/15 19:22:29;;;;;;;2.72;1.88;;;19.70;37.10;;;;;;8328175;28;20040;-49
2021/05/15 19:26:33;;;;;;;3.30;1.77;;;19.70;37.10;;;;;;8329725;28;20060;-48
2021/05/15 19:30:33;;;;;;;3.13;1.88;;;19.70;37.20;;;;;;8334162;28;20037;-48
2021/05/15 19:34:35;;;;;;;3.30;2.20;;;19.70;37.20;;;;;;8328154;28;20402;-48
2021/05/15 19:38:37;;;;;;;2.97;2.00;;;19.70;37.20;;;;;;8329572;28;20037;-50
2021/05/15 19:42:37;;;;;;;2.67;2.08;;;19.70;37.20;;;;;;8329498;28;20059;-49
2021/05/15 19:46:38;;;;;;;2.40;1.73;;;19.70;37.20;;;;;;8327438;28;20053;-49
2021/05/15 19:50:43;;;;;;;2.40;1.73;;;19.70;37.20;;;;;;8332984;28;20076;-49
2021/05/15 19:54:47;;;;;;;2.72;1.75;;;19.70;37.20;;;;;;8328897;28;20041;-49
2021/05/15 19:58:48;;;;;;;2.58;1.70;;;19.60;37.20;;;;;;8327323;28;20127;-50
2021/05/15 20:02:51;;;;;;;2.70;1.90;;;19.60;37.20;;;;;;8328703;28;20040;-50
2021/05/15 20:06:51;;;;;;;2.72;1.65;;;19.70;37.30;;;;;;8332790;28;20410;-49
2021/05/15 20:10:52;;;;;;;2.57;1.80;;;19.60;37.20;;;;;;8326881;28;20044;-49
2021/05/15 20:14:52;;;;;;;2.03;1.47;;;19.70;37.30;;;;;;8328657;28;20053;-49
2021/05/15 20:18:53;;;;;;;2.50;1.83;;;19.60;37.30;;;;;;8328379;28;20034;-51
2021/05/15 20:22:54;;;;;;;2.17;1.83;;;19.60;37.30;;;;;;8327471;28;20033;-50
2021/05/15 20:26:55;;;;;;;3.03;1.98;;;19.60;37.30;;;;;;8299602;28;20407;-51
2021/05/15 20:30:57;;;;;;;3.13;1.77;;;19.60;37.30;;;;;;8319376;28;20038;-48
2021/05/15 20:34:58;;;;;;;1.65;1.52;;;19.60;37.30;;;;;;8326078;28;20518;-47
2021/05/15 20:38:58;;;;;;;3.10;1.60;;;19.60;37.30;;;;;;8327631;28;20030;-49
2021/05/15 20:42:59;;;;;;;1.67;1.47;;;19.60;37.30;;;;;;8332124;28;20469;-49
2021/05/15 20:46:59;;;;;;;2.37;1.70;;;19.60;37.30;;;;;;8296675;28;20034;-50
2021/05/15 20:51:11;;;;;;;3.50;1.63;;;19.60;37.30;;;;;;8294552;28;20116;-48
2021/05/15 20:55:12;;;;;;;1.92;1.50;;;19.60;37.30;;;;;;8317178;28;20036;-51
2021/05/15 20:59:13;;;;;;;2.35;1.50;;;19.60;37.30;;;;;;8326953;28;20037;-51